createdAt,value
2023-01-11T00:02:27.822Z,7.53
2023-01-11T00:04:57.258Z,7.80
2023-01-11T00:07:25.487Z,7.60
2023-01-11T00:09:53.441Z,8.67
2023-01-11T00:12:21.383Z,8.17
2023-01-11T00:14:49.401Z,9.83
2023-01-11T00:17:17.571Z,7.83
2023-01-11T00:19:45.525Z,8.27
2023-01-11T00:22:15.079Z,8.10
2023-01-11T00:24:43.076Z,8.53
2023-01-11T00:27:11.053Z,8.00
2023-01-11T00:29:38.976Z,10.27
2023-01-11T00:32:07.198Z,7.57
2023-01-11T00:34:35.466Z,7.57
2023-01-11T00:37:04.473Z,9.23
2023-01-11T00:39:33.815Z,7.73
2023-01-11T00:42:19.414Z,8.37
2023-01-11T00:45:04.517Z,9.33
2023-01-11T00:47:49.713Z,10.23
2023-01-11T00:50:17.961Z,9.33
2023-01-11T00:52:46.099Z,9.40
2023-01-11T00:55:15.591Z,9.80
2023-01-11T00:57:45.976Z,9.37
2023-01-11T01:00:14.781Z,9.23
2023-01-11T01:02:42.743Z,10.53
2023-01-11T01:05:11.145Z,9.33
2023-01-11T01:07:39.168Z,9.77
2023-01-11T01:10:08.500Z,10.43
2023-01-11T01:12:55.456Z,10.67
2023-01-11T01:15:23.885Z,8.90
2023-01-11T01:17:55.079Z,8.83
2023-01-11T01:20:23.290Z,8.67
2023-01-11T01:22:51.764Z,10.60
2023-01-11T01:25:20.063Z,9.20
2023-01-11T01:27:49.600Z,8.50
2023-01-11T01:30:18.014Z,8.93
2023-01-11T01:32:45.930Z,8.43
2023-01-11T01:35:13.888Z,9.07
2023-01-11T01:37:41.789Z,8.57
2023-01-11T01:40:11.356Z,9.03
2023-01-11T01:42:39.271Z,7.83
2023-01-11T01:45:23.989Z,8.27
2023-01-11T01:47:57.385Z,7.17
2023-01-11T01:50:29.251Z,6.93
2023-01-11T01:53:02.302Z,7.83
2023-01-11T01:55:34.758Z,8.10
2023-01-11T01:58:05.765Z,7.90
2023-01-11T02:00:35.182Z,8.67
2023-01-11T02:03:03.604Z,7.27
2023-01-11T02:05:32.247Z,8.87
2023-01-11T02:08:03.229Z,7.03
2023-01-11T02:10:31.406Z,8.13
2023-01-11T02:13:01.687Z,7.23
2023-01-11T02:15:32.681Z,7.13
2023-01-11T02:18:01.977Z,8.13
2023-01-11T02:21:01.783Z,7.20
2023-01-11T02:24:16.019Z,7.67
2023-01-11T02:27:25.489Z,7.63
2023-01-11T02:30:06.467Z,9.23
2023-01-11T02:32:45.510Z,8.50
2023-01-11T02:35:21.558Z,7.30
2023-01-11T02:38:00.383Z,7.53
2023-01-11T02:40:39.095Z,7.20
2023-01-11T02:43:29.512Z,6.27
2023-01-11T02:46:04.088Z,6.80
2023-01-11T02:48:36.213Z,5.73
2023-01-11T02:51:09.414Z,7.77
2023-01-11T02:53:42.754Z,5.57
2023-01-11T02:56:14.725Z,6.17
2023-01-11T02:58:46.536Z,6.17
2023-01-11T03:01:17.007Z,7.00
2023-01-11T03:03:44.954Z,7.17
2023-01-11T03:06:18.176Z,6.37
2023-01-11T03:09:15.570Z,5.70
2023-01-11T03:12:13.242Z,5.47
2023-01-11T03:14:52.073Z,7.07
2023-01-11T03:17:35.728Z,5.70
2023-01-11T03:20:10.575Z,5.47
2023-01-11T03:22:53.648Z,5.80
2023-01-11T03:25:25.279Z,5.40
2023-01-11T03:27:58.343Z,5.53
2023-01-11T03:30:32.890Z,5.60
2023-01-11T03:33:07.246Z,5.93
2023-01-11T03:35:41.741Z,5.17
2023-01-11T03:38:13.892Z,6.13
2023-01-11T03:40:45.914Z,5.13
2023-01-11T03:43:17.540Z,6.13
2023-01-11T03:45:53.791Z,5.67
2023-01-11T03:48:28.977Z,5.20
2023-01-11T03:51:00.051Z,5.20
2023-01-11T03:53:32.827Z,4.80
2023-01-11T03:56:02.787Z,5.03
2023-01-11T03:58:31.126Z,5.10
2023-01-11T04:01:00.338Z,5.90
2023-01-11T04:03:29.771Z,5.50
2023-01-11T04:06:01.774Z,6.43
2023-01-11T04:08:31.082Z,6.73
2023-01-11T04:10:59.041Z,6.33
2023-01-11T04:13:26.953Z,5.97
2023-01-11T04:15:55.043Z,6.03
2023-01-11T04:18:23.262Z,6.67
2023-01-11T04:20:52.589Z,5.03
2023-01-11T04:23:20.497Z,5.50
2023-01-11T04:25:48.434Z,5.50
2023-01-11T04:28:16.515Z,6.97
2023-01-11T04:30:44.443Z,5.53
2023-01-11T04:33:14.481Z,4.70
2023-01-11T04:35:43.917Z,4.63
2023-01-11T04:38:13.502Z,4.10
2023-01-11T04:40:41.521Z,4.80
2023-01-11T04:43:11.254Z,4.83
2023-01-11T04:45:39.341Z,5.87
2023-01-11T04:48:07.648Z,4.13
2023-01-11T04:50:35.822Z,4.17
2023-01-11T04:53:03.984Z,3.93
2023-01-11T04:55:33.237Z,4.23
2023-01-11T04:58:01.173Z,3.93
2023-01-11T05:00:35.086Z,3.93
2023-01-11T05:03:02.999Z,3.90
2023-01-11T05:05:30.961Z,3.47
2023-01-11T05:07:59.204Z,3.40
2023-01-11T05:10:27.241Z,3.77
2023-01-11T05:12:56.567Z,3.63
2023-01-11T05:15:24.589Z,3.07
2023-01-11T05:17:52.529Z,3.30
2023-01-11T05:20:20.503Z,4.03
2023-01-11T05:22:49.273Z,2.83
2023-01-11T05:25:17.410Z,4.37
2023-01-11T05:27:45.641Z,3.27
2023-01-11T05:30:15.591Z,2.97
2023-01-11T05:32:43.556Z,3.30
2023-01-11T05:35:11.799Z,2.97
2023-01-11T05:37:40.227Z,2.97
2023-01-11T05:40:09.661Z,3.47
2023-01-11T05:42:37.647Z,2.93
2023-01-11T05:45:27.799Z,3.00
2023-01-11T05:47:57.376Z,3.27
2023-01-11T05:50:25.386Z,3.30
2023-01-11T05:52:53.510Z,6.03
2023-01-11T05:55:21.534Z,4.17
2023-01-11T05:57:50.741Z,3.63
2023-01-11T06:00:19.462Z,4.10
2023-01-11T06:02:47.803Z,4.27
2023-01-11T06:05:17.519Z,4.30
2023-01-11T06:07:45.465Z,4.33
2023-01-11T06:10:13.415Z,4.10
2023-01-11T06:12:41.710Z,4.60
2023-01-11T06:15:10.597Z,3.67
2023-01-11T06:17:38.595Z,4.03
2023-01-11T06:20:08.373Z,4.20
2023-01-11T06:22:37.695Z,4.17
2023-01-11T06:25:06.508Z,4.07
2023-01-11T06:27:34.445Z,3.80
2023-01-11T06:30:02.453Z,4.00
2023-01-11T06:32:30.856Z,4.10
2023-01-11T06:34:58.805Z,4.50
2023-01-11T06:37:26.784Z,4.23
2023-01-11T06:39:56.106Z,4.40
2023-01-11T06:42:24.159Z,4.23
2023-01-11T06:44:52.273Z,4.43
2023-01-11T06:47:20.283Z,4.20
2023-01-11T06:49:48.270Z,4.20
2023-01-11T06:52:16.526Z,4.57
2023-01-11T06:54:44.680Z,4.20
2023-01-11T06:57:14.303Z,3.77
2023-01-11T06:59:43.397Z,4.43
2023-01-11T07:02:11.796Z,3.60
2023-01-11T07:04:39.761Z,4.33
2023-01-11T07:07:07.841Z,3.53
2023-01-11T07:09:36.000Z,4.40
2023-01-11T07:12:03.943Z,4.00
2023-01-11T07:14:35.759Z,3.47
2023-01-11T07:17:06.511Z,3.70
2023-01-11T07:19:34.639Z,3.87
2023-01-11T07:22:02.658Z,3.83
2023-01-11T07:24:30.703Z,4.37
2023-01-11T07:27:01.270Z,3.70
2023-01-11T07:29:29.530Z,4.77
2023-01-11T07:31:59.260Z,4.83
2023-01-11T07:34:27.696Z,7.20
2023-01-11T07:36:55.646Z,4.70
2023-01-11T07:39:31.904Z,4.33
2023-01-11T07:42:29.407Z,4.20
2023-01-11T07:44:57.399Z,11.37
2023-01-11T07:47:29.644Z,17.07
2023-01-11T07:50:03.380Z,9.80
2023-01-11T07:52:31.368Z,7.10
2023-01-11T07:55:02.877Z,14.53
2023-01-11T07:57:31.119Z,6.90
2023-01-11T07:59:59.116Z,6.73
2023-01-11T08:02:27.191Z,5.73
2023-01-11T08:04:56.675Z,4.07
2023-01-11T08:07:24.681Z,5.10
2023-01-11T08:09:52.924Z,4.70
2023-01-11T08:12:38.121Z,4.17
2023-01-11T08:15:09.245Z,6.13
2023-01-11T08:17:38.600Z,6.17
2023-01-11T08:20:10.001Z,5.73
2023-01-11T08:22:38.170Z,6.80
2023-01-11T08:25:07.142Z,9.07
2023-01-11T08:27:35.625Z,11.13
2023-01-11T08:30:03.847Z,18.03
2023-01-11T08:32:31.841Z,12.87
2023-01-11T08:34:59.917Z,14.30
2023-01-11T08:37:29.216Z,16.37
2023-01-11T08:39:58.301Z,12.30
2023-01-11T08:42:26.431Z,10.43
2023-01-11T08:44:55.643Z,7.00
2023-01-11T08:47:23.937Z,9.00
2023-01-11T08:49:51.971Z,5.27
2023-01-11T08:52:20.047Z,4.20
2023-01-11T08:54:49.428Z,4.87
2023-01-11T08:57:17.433Z,4.20
2023-01-11T08:59:45.579Z,7.80
2023-01-11T09:02:13.874Z,6.43
2023-01-11T09:04:42.898Z,7.00
2023-01-11T09:07:10.934Z,5.30
2023-01-11T09:09:39.051Z,4.53
2023-01-11T09:12:08.819Z,5.23
2023-01-11T09:14:36.768Z,5.50
2023-01-11T09:17:04.843Z,6.83
2023-01-11T09:19:33.503Z,5.27
2023-01-11T09:22:03.085Z,5.47
2023-01-11T09:24:31.644Z,4.67
2023-01-11T09:27:00.465Z,5.23
2023-01-11T09:29:29.880Z,5.07
2023-01-11T09:31:58.073Z,4.77
2023-01-11T09:34:27.444Z,6.33
2023-01-11T09:37:00.807Z,5.80
2023-01-11T09:39:28.967Z,5.23
2023-01-11T09:42:16.572Z,5.03
2023-01-11T09:44:52.369Z,2.60
2023-01-11T09:47:31.604Z,2.23
2023-01-11T09:50:06.385Z,3.63
2023-01-11T09:52:39.757Z,3.80
2023-01-11T09:55:16.449Z,2.40
2023-01-11T09:57:59.273Z,3.10
2023-01-11T10:00:40.559Z,2.33
2023-01-11T10:03:36.985Z,1.43
2023-01-11T10:06:15.185Z,2.87
2023-01-11T10:18:23.800Z,2.23
2023-01-11T10:18:46.082Z,1.37
2023-01-11T10:21:18.162Z,1.73
2023-01-11T10:23:53.621Z,1.10
2023-01-11T10:26:28.347Z,1.60
2023-01-11T10:32:13.645Z,1.70
2023-01-11T10:35:00.034Z,1.50
2023-01-11T10:37:54.501Z,3.10
2023-01-11T10:40:35.318Z,1.83
2023-01-11T10:43:09.413Z,2.57
2023-01-11T10:45:43.596Z,1.57
2023-01-11T10:48:23.770Z,4.87
2023-01-11T10:51:02.001Z,2.10
2023-01-11T10:53:36.974Z,2.03
2023-01-11T10:56:22.761Z,3.87
2023-01-11T10:59:15.843Z,1.67
2023-01-11T11:01:56.876Z,1.50
2023-01-11T11:04:56.206Z,2.17
2023-01-11T11:07:32.914Z,2.47
2023-01-11T11:10:09.307Z,2.37
2023-01-11T11:12:41.722Z,2.97
2023-01-11T11:15:15.480Z,3.37
2023-01-11T11:17:49.591Z,2.53
2023-01-11T11:20:21.339Z,3.63
2023-01-11T11:22:53.594Z,2.93
2023-01-11T11:25:27.816Z,1.63
2023-01-11T11:27:59.306Z,2.57
2023-01-11T11:30:30.492Z,1.70
2023-01-11T11:33:02.447Z,2.83
2023-01-11T11:35:34.260Z,3.73
2023-01-11T11:38:02.425Z,1.97
2023-01-11T11:40:33.066Z,1.47
2023-01-11T11:43:21.199Z,4.10
2023-01-11T11:45:54.228Z,2.63
2023-01-11T11:48:23.237Z,4.27
2023-01-11T11:50:54.461Z,5.07
2023-01-11T11:53:33.645Z,2.23
2023-01-11T11:56:08.804Z,3.03
2023-01-11T11:58:43.191Z,2.10
2023-01-11T12:01:23.476Z,9.80
2023-01-11T12:03:57.322Z,6.50
2023-01-11T12:06:29.467Z,3.73
2023-01-11T12:08:59.445Z,2.80
2023-01-11T12:11:32.894Z,7.77
2023-01-11T12:14:16.656Z,4.23
2023-01-11T12:16:46.543Z,3.13
2023-01-11T12:19:29.615Z,4.70
2023-01-11T12:22:17.808Z,3.13
2023-01-11T12:24:47.277Z,4.20
2023-01-11T12:27:33.891Z,4.90
2023-01-11T12:30:20.989Z,4.37
2023-01-11T12:33:15.744Z,8.93
2023-01-11T12:35:52.852Z,3.87
2023-01-11T12:38:37.429Z,7.10
2023-01-11T12:41:48.353Z,7.63
2023-01-11T12:44:36.208Z,6.80
2023-01-11T12:47:27.046Z,7.77
2023-01-11T12:50:03.947Z,8.03
2023-01-11T12:52:47.550Z,8.40
2023-01-11T12:55:31.207Z,6.33
2023-01-11T12:58:08.488Z,8.77
2023-01-11T13:00:56.867Z,9.27
2023-01-11T13:03:46.055Z,6.73
2023-01-11T13:06:18.312Z,7.37
2023-01-11T13:08:56.824Z,7.23
2023-01-11T13:11:40.221Z,6.47
2023-01-11T13:14:27.739Z,6.07
2023-01-11T13:17:06.754Z,5.50
2023-01-11T13:19:41.164Z,10.10
2023-01-11T13:22:17.297Z,7.03
2023-01-11T13:24:48.283Z,9.70
2023-01-11T13:27:22.459Z,12.07
2023-01-11T13:29:53.618Z,6.67
2023-01-11T13:32:24.441Z,7.37
2023-01-11T13:34:56.724Z,9.53
2023-01-11T13:37:31.045Z,11.07
2023-01-11T13:40:04.713Z,9.83
2023-01-11T13:42:37.752Z,8.37
2023-01-11T13:45:14.620Z,5.93
2023-01-11T13:47:46.269Z,13.47
2023-01-11T13:50:22.438Z,9.23
2023-01-11T13:53:03.339Z,7.47
2023-01-11T13:55:41.803Z,9.37
2023-01-11T13:58:18.860Z,8.53
2023-01-11T14:00:53.623Z,9.03
2023-01-11T14:03:30.018Z,9.63
2023-01-11T14:06:13.200Z,5.93
2023-01-11T14:09:03.239Z,6.17
2023-01-11T14:11:41.761Z,8.00
2023-01-11T14:14:25.780Z,6.70
2023-01-11T14:17:22.954Z,15.77
2023-01-11T14:20:00.241Z,24.73
2023-01-11T14:22:38.673Z,13.27
2023-01-11T14:25:10.378Z,15.20
2023-01-11T14:28:08.480Z,13.50
2023-01-11T14:30:54.929Z,12.37
2023-01-11T14:34:05.626Z,8.90
2023-01-11T14:37:00.188Z,12.97
2023-01-11T14:39:58.147Z,8.87
2023-01-11T14:42:51.322Z,16.03
2023-01-11T14:45:34.377Z,8.83
2023-01-11T14:48:19.951Z,9.10
2023-01-11T14:51:15.492Z,6.47
2023-01-11T14:53:50.940Z,9.97
2023-01-11T14:56:54.021Z,10.23
2023-01-11T14:59:33.121Z,9.93
2023-01-11T15:02:26.272Z,8.67
2023-01-11T15:05:30.971Z,10.93
2023-01-11T15:08:12.121Z,9.70
2023-01-11T15:10:53.042Z,9.53
2023-01-11T15:13:24.923Z,12.23
2023-01-11T15:16:11.771Z,11.43
2023-01-11T15:18:47.027Z,12.97
2023-01-11T15:21:23.307Z,9.47
2023-01-11T15:23:54.495Z,14.30
2023-01-11T15:26:24.449Z,11.80
2023-01-11T15:28:54.417Z,16.07
2023-01-11T15:31:44.478Z,15.83
2023-01-11T15:34:24.545Z,15.50
2023-01-11T15:37:06.503Z,17.67
2023-01-11T15:39:41.368Z,13.43
2023-01-11T15:42:40.893Z,18.10
2023-01-11T15:45:32.730Z,10.97
2023-01-11T15:48:21.251Z,12.40
2023-01-11T15:51:19.548Z,16.27
2023-01-11T15:54:17.402Z,12.97
2023-01-11T15:57:11.853Z,13.03
2023-01-11T16:00:02.971Z,13.03
2023-01-11T16:02:53.920Z,13.27
2023-01-11T16:05:24.853Z,17.93
2023-01-11T16:08:03.687Z,12.27
2023-01-11T16:10:53.943Z,16.63
2023-01-11T16:13:38.625Z,16.20
2023-01-11T16:16:17.620Z,18.67
2023-01-11T16:18:49.922Z,23.77
2023-01-11T16:21:24.838Z,18.57
2023-01-11T16:23:52.905Z,14.90
2023-01-11T16:26:22.313Z,15.27
2023-01-11T16:28:54.423Z,15.50
2023-01-11T16:31:22.494Z,18.30
2023-01-11T16:33:51.879Z,18.47
2023-01-11T16:36:22.603Z,12.93
2023-01-11T16:38:57.974Z,18.50
2023-01-11T16:41:30.404Z,14.50
2023-01-11T16:44:03.519Z,12.17
2023-01-11T16:47:04.955Z,13.63
2023-01-11T16:49:33.375Z,13.73
2023-01-11T16:52:03.554Z,15.27
2023-01-11T16:54:33.555Z,11.30
2023-01-11T16:57:03.087Z,13.43
2023-01-11T16:59:34.051Z,14.73
2023-01-11T17:02:04.051Z,15.57
2023-01-11T17:04:34.164Z,15.90
2023-01-11T17:07:15.509Z,9.87
2023-01-11T17:09:44.007Z,14.30
2023-01-11T17:12:17.621Z,10.97
2023-01-11T17:15:08.491Z,13.97
2023-01-11T17:17:38.201Z,12.17
2023-01-11T17:20:22.888Z,17.53
2023-01-11T17:22:53.876Z,15.77
2023-01-11T17:25:26.219Z,13.73
2023-01-11T17:28:01.472Z,14.43
2023-01-11T17:30:32.600Z,17.03
2023-01-11T17:33:01.186Z,17.43
2023-01-11T17:35:31.389Z,15.80
2023-01-11T17:38:03.247Z,12.47
2023-01-11T17:40:35.281Z,11.03
2023-01-11T17:43:23.615Z,14.00
2023-01-11T17:45:56.268Z,21.13
2023-01-11T17:48:25.056Z,16.77
2023-01-11T17:50:56.817Z,45.07
2023-01-11T17:53:27.017Z,178.23
2023-01-11T17:55:56.957Z,171.83
2023-01-11T17:58:27.412Z,93.50
2023-01-11T18:01:16.334Z,66.47
2023-01-11T18:03:46.568Z,48.90
2023-01-11T18:06:23.696Z,61.73
2023-01-11T18:08:57.000Z,55.90
2023-01-11T18:11:27.546Z,86.33
2023-01-11T18:13:57.653Z,128.73
2023-01-11T18:16:27.629Z,59.10
2023-01-11T18:18:56.492Z,51.70
2023-01-11T18:21:41.552Z,97.53
2023-01-11T18:24:43.032Z,68.67
2023-01-11T18:27:27.164Z,69.63
2023-01-11T18:29:57.219Z,43.90
2023-01-11T18:32:31.194Z,53.33
2023-01-11T18:35:00.249Z,38.33
2023-01-11T18:37:28.321Z,41.60
2023-01-11T18:39:56.791Z,40.90
2023-01-11T18:42:29.983Z,37.80
2023-01-11T18:44:58.344Z,27.50
2023-01-11T18:47:30.448Z,22.07
2023-01-11T18:49:59.250Z,27.50
2023-01-11T18:52:29.570Z,23.83
2023-01-11T18:55:00.060Z,21.50
2023-01-11T18:57:28.198Z,25.30
2023-01-11T18:59:56.819Z,24.40
2023-01-11T19:02:28.447Z,26.03
2023-01-11T19:04:58.593Z,27.70
2023-01-11T19:07:27.913Z,28.63
2023-01-11T19:09:56.049Z,27.03
2023-01-11T19:12:25.090Z,31.80
2023-01-11T19:14:53.260Z,34.47
2023-01-11T19:17:21.837Z,33.20
2023-01-11T19:19:54.347Z,33.90
2023-01-11T19:22:26.073Z,46.53
2023-01-11T19:24:55.002Z,40.30
2023-01-11T19:27:23.245Z,33.10
2023-01-11T19:29:52.893Z,29.47
2023-01-11T19:32:25.209Z,25.93
2023-01-11T19:34:58.103Z,26.73
2023-01-11T19:37:27.010Z,22.37
2023-01-11T19:39:55.427Z,22.53
2023-01-11T19:42:23.966Z,25.87
2023-01-11T19:44:52.471Z,17.77
2023-01-11T19:47:20.625Z,19.70
2023-01-11T19:49:48.609Z,24.87
2023-01-11T19:52:21.812Z,23.77
2023-01-11T19:54:49.903Z,24.33
2023-01-11T19:57:20.613Z,31.47
2023-01-11T19:59:49.912Z,33.10
2023-01-11T20:02:20.168Z,20.37
2023-01-11T20:04:48.355Z,19.17
2023-01-11T20:07:18.646Z,23.00
2023-01-11T20:09:47.081Z,23.00
2023-01-11T20:12:16.256Z,18.17
2023-01-11T20:14:45.681Z,20.40
2023-01-11T20:17:13.905Z,18.87
2023-01-11T20:19:43.316Z,17.70
2023-01-11T20:22:11.508Z,23.87
2023-01-11T20:24:41.191Z,23.33
2023-01-11T20:27:09.505Z,16.80
2023-01-11T20:29:37.654Z,20.20
2023-01-11T20:32:27.835Z,15.70
2023-01-11T20:34:54.257Z,17.23
2023-01-11T20:37:22.380Z,17.93
2023-01-11T20:39:51.922Z,20.17
2023-01-11T20:42:20.196Z,15.53
2023-01-11T20:44:48.405Z,21.47
2023-01-11T20:47:16.700Z,16.00
2023-01-11T20:49:44.724Z,17.93
2023-01-11T20:52:12.745Z,27.07
2023-01-11T20:54:40.926Z,22.17
2023-01-11T20:57:12.607Z,28.27
2023-01-11T20:59:41.097Z,29.43
2023-01-11T21:02:11.274Z,23.43
2023-01-11T21:04:39.396Z,19.63
2023-01-11T21:07:07.380Z,17.50
2023-01-11T21:09:35.418Z,15.17
2023-01-11T21:12:03.420Z,20.30
2023-01-11T21:14:33.257Z,14.47
2023-01-11T21:17:01.626Z,19.10
2023-01-11T21:19:29.660Z,17.53
2023-01-11T21:21:57.679Z,27.93
2023-01-11T21:24:25.701Z,27.73
2023-01-11T21:26:53.751Z,29.37
2023-01-11T21:29:21.806Z,26.47
2023-01-11T21:31:51.282Z,38.50
2023-01-11T21:34:19.851Z,32.33
2023-01-11T21:36:48.055Z,29.50
2023-01-11T21:39:17.445Z,24.53
2023-01-11T21:41:58.758Z,20.70
2023-01-11T21:44:33.653Z,23.17
2023-01-11T21:47:05.241Z,20.37
2023-01-11T21:49:33.698Z,18.27
2023-01-11T21:52:02.014Z,20.07
2023-01-11T21:54:30.236Z,15.77
2023-01-11T21:56:58.742Z,17.53
2023-01-11T21:59:26.796Z,16.90
2023-01-11T22:01:55.469Z,20.13
2023-01-11T22:04:24.948Z,17.80
2023-01-11T22:06:54.813Z,18.87
2023-01-11T22:09:24.491Z,16.50
2023-01-11T22:11:52.463Z,20.07
2023-01-11T22:14:20.743Z,23.50
2023-01-11T22:16:49.068Z,14.10
2023-01-11T22:19:17.780Z,18.50
2023-01-11T22:21:47.699Z,16.20
2023-01-11T22:24:17.568Z,15.07
2023-01-11T22:26:45.702Z,16.83
2023-01-11T22:29:15.389Z,13.40
2023-01-11T22:31:47.285Z,14.07
2023-01-11T22:34:15.974Z,13.03
2023-01-11T22:36:44.682Z,13.83
2023-01-11T22:39:16.245Z,15.27
2023-01-11T22:41:46.098Z,18.77
2023-01-11T22:44:15.097Z,25.57
2023-01-11T22:46:43.966Z,17.07
2023-01-11T22:49:12.901Z,14.80
2023-01-11T22:51:42.045Z,19.53
2023-01-11T22:54:10.985Z,18.07
2023-01-11T22:56:40.594Z,15.20
2023-01-11T22:59:08.609Z,14.33
2023-01-11T23:01:38.305Z,16.93
2023-01-11T23:04:08.003Z,21.50
2023-01-11T23:06:38.021Z,13.87
2023-01-11T23:09:06.955Z,35.23
2023-01-11T23:11:56.619Z,17.63
2023-01-11T23:14:29.374Z,35.53
2023-01-11T23:16:58.808Z,29.83
2023-01-11T23:19:27.078Z,18.57
2023-01-11T23:21:55.059Z,12.53
2023-01-11T23:24:22.997Z,16.07
2023-01-11T23:26:51.256Z,16.70
2023-01-11T23:29:19.358Z,11.67
2023-01-11T23:31:49.071Z,10.60
2023-01-11T23:34:17.738Z,13.80
2023-01-11T23:36:45.821Z,10.00
2023-01-11T23:39:15.889Z,12.40
2023-01-11T23:42:01.545Z,14.80
2023-01-11T23:44:29.961Z,14.57
2023-01-11T23:47:25.454Z,14.90
2023-01-11T23:49:54.949Z,12.57
2023-01-11T23:52:24.462Z,16.23
2023-01-11T23:54:52.626Z,12.37
2023-01-11T23:57:21.929Z,15.27
2023-01-11T23:59:50.079Z,14.97
